createdAt,value
2022-08-31T00:56:18.364Z,5.17
2022-08-31T00:58:51.340Z,6.63
2022-08-31T01:01:24.262Z,6.17
2022-08-31T01:03:53.189Z,6.07
2022-08-31T01:06:22.651Z,6.33
2022-08-31T01:08:52.045Z,7.13
2022-08-31T01:11:22.737Z,6.60
2022-08-31T01:13:51.788Z,6.27
2022-08-31T01:16:22.816Z,7.00
2022-08-31T01:18:53.774Z,7.67
2022-08-31T01:21:27.582Z,7.53
2022-08-31T01:23:58.798Z,7.80
2022-08-31T01:26:29.199Z,6.80
2022-08-31T01:29:00.746Z,8.13
2022-08-31T01:31:31.850Z,7.53
2022-08-31T01:34:00.708Z,8.13
2022-08-31T01:36:30.249Z,7.47
2022-08-31T01:39:00.415Z,7.30
2022-08-31T01:41:29.476Z,7.53
2022-08-31T01:43:58.364Z,7.40
2022-08-31T01:46:27.326Z,7.97
2022-08-31T01:48:56.108Z,8.77
2022-08-31T01:51:24.991Z,7.97
2022-08-31T01:53:54.528Z,7.77
2022-08-31T01:56:28.099Z,8.27
2022-08-31T01:58:58.771Z,7.47
2022-08-31T02:01:50.593Z,7.47
2022-08-31T02:04:20.152Z,7.67
2022-08-31T02:06:50.157Z,7.80
2022-08-31T02:09:20.961Z,7.50
2022-08-31T02:11:51.413Z,6.57
2022-08-31T02:14:20.688Z,7.40
2022-08-31T02:16:50.129Z,7.30
2022-08-31T02:19:19.327Z,6.53
2022-08-31T02:21:48.414Z,6.70
2022-08-31T02:24:17.225Z,7.80
2022-08-31T02:26:47.689Z,7.67
2022-08-31T02:29:19.532Z,6.70
2022-08-31T02:31:48.650Z,7.90
2022-08-31T02:34:18.168Z,7.97
2022-08-31T02:36:47.168Z,8.07
2022-08-31T02:39:15.912Z,7.10
2022-08-31T02:41:45.995Z,7.40
2022-08-31T02:44:14.881Z,9.17
2022-08-31T02:46:45.435Z,8.33
2022-08-31T02:49:36.589Z,8.60
2022-08-31T02:52:05.480Z,9.27
2022-08-31T02:54:34.227Z,8.23
2022-08-31T02:57:03.725Z,7.97
2022-08-31T02:59:32.338Z,8.20
2022-08-31T03:02:02.916Z,8.43
2022-08-31T03:04:32.320Z,8.53
2022-08-31T03:07:00.901Z,8.47
2022-08-31T03:09:31.766Z,7.87
2022-08-31T03:12:00.708Z,8.87
2022-08-31T03:14:29.669Z,8.20
2022-08-31T03:16:58.342Z,8.37
2022-08-31T03:19:28.761Z,8.47
2022-08-31T03:21:58.504Z,9.00
2022-08-31T03:24:28.006Z,9.30
2022-08-31T03:26:57.693Z,10.07
2022-08-31T03:29:26.825Z,8.00
2022-08-31T03:32:14.486Z,8.80
2022-08-31T03:34:47.222Z,9.47
2022-08-31T03:37:15.965Z,8.93
2022-08-31T03:39:45.106Z,9.13
2022-08-31T03:42:13.872Z,8.90
2022-08-31T03:44:42.743Z,8.83
2022-08-31T03:47:21.213Z,9.00
2022-08-31T03:49:52.730Z,9.00
2022-08-31T03:52:25.578Z,11.20
2022-08-31T03:55:10.874Z,10.40
2022-08-31T03:57:40.913Z,10.50
2022-08-31T04:00:11.161Z,10.80
2022-08-31T04:02:42.872Z,8.77
2022-08-31T04:05:48.230Z,8.60
2022-08-31T04:08:40.140Z,7.60
2022-08-31T04:11:44.475Z,8.33
2022-08-31T04:14:33.696Z,8.53
2022-08-31T04:17:21.129Z,8.60
2022-08-31T04:19:57.482Z,8.83
2022-08-31T04:22:46.181Z,7.43
2022-08-31T04:25:30.044Z,8.10
2022-08-31T04:27:58.935Z,7.77
2022-08-31T04:30:29.028Z,8.20
2022-08-31T04:32:58.145Z,8.30
2022-08-31T04:35:26.873Z,8.90
2022-08-31T04:37:57.422Z,9.50
2022-08-31T04:40:26.478Z,9.70
2022-08-31T04:42:56.291Z,10.63
2022-08-31T04:45:26.055Z,11.23
2022-08-31T04:47:55.142Z,9.37
2022-08-31T04:50:23.745Z,9.30
2022-08-31T04:53:11.238Z,8.90
2022-08-31T04:55:41.282Z,8.90
2022-08-31T04:58:12.895Z,9.10
2022-08-31T05:00:44.390Z,8.73
2022-08-31T05:03:24.671Z,9.47
2022-08-31T05:05:56.924Z,11.03
2022-08-31T05:08:27.831Z,10.13
2022-08-31T05:10:56.728Z,9.37
2022-08-31T05:13:25.857Z,9.17
2022-08-31T05:15:56.154Z,9.63
2022-08-31T05:18:26.354Z,10.70
2022-08-31T05:21:10.035Z,10.50
2022-08-31T05:23:40.648Z,9.70
2022-08-31T05:26:10.149Z,10.87
2022-08-31T05:28:42.092Z,9.60
2022-08-31T05:31:11.292Z,9.67
2022-08-31T05:33:46.226Z,10.20
2022-08-31T05:36:17.054Z,9.47
2022-08-31T05:38:47.595Z,10.33
2022-08-31T05:41:17.984Z,9.90
2022-08-31T05:43:47.172Z,10.57
2022-08-31T05:46:17.824Z,9.80
2022-08-31T05:48:49.166Z,10.87
2022-08-31T05:51:20.057Z,9.27
2022-08-31T05:53:50.136Z,11.00
2022-08-31T05:56:20.522Z,10.57
2022-08-31T05:58:51.149Z,11.10
2022-08-31T06:01:21.863Z,11.40
2022-08-31T06:04:03.372Z,11.57
2022-08-31T06:06:32.535Z,10.63
2022-08-31T06:09:05.909Z,10.40
2022-08-31T06:11:35.750Z,10.07
2022-08-31T06:14:05.868Z,10.40
2022-08-31T06:16:37.790Z,10.07
2022-08-31T06:19:07.172Z,10.27
2022-08-31T06:21:39.313Z,9.60
2022-08-31T06:24:24.473Z,10.10
2022-08-31T06:26:58.303Z,9.03
2022-08-31T06:29:35.530Z,10.07
2022-08-31T06:32:08.209Z,10.33
2022-08-31T06:34:40.907Z,10.43
2022-08-31T06:37:18.304Z,9.40
2022-08-31T06:40:08.771Z,8.73
2022-08-31T06:42:47.802Z,10.00
2022-08-31T06:45:31.046Z,9.60
2022-08-31T06:48:19.048Z,9.90
2022-08-31T06:50:47.821Z,9.30
2022-08-31T06:53:16.509Z,9.23
2022-08-31T06:56:07.185Z,8.80
2022-08-31T06:59:08.886Z,9.30
2022-08-31T07:02:04.174Z,9.50
2022-08-31T07:04:34.836Z,9.67
2022-08-31T07:07:03.925Z,9.10
2022-08-31T07:09:33.096Z,7.73
2022-08-31T07:12:05.803Z,9.23
2022-08-31T07:14:35.792Z,8.73
2022-08-31T07:17:05.103Z,9.80
2022-08-31T07:19:34.999Z,8.33
2022-08-31T07:22:07.411Z,10.17
2022-08-31T07:24:36.550Z,9.03
2022-08-31T07:27:11.878Z,9.47
2022-08-31T07:29:49.065Z,10.47
2022-08-31T07:32:19.757Z,10.67
2022-08-31T07:34:58.591Z,9.37
2022-08-31T07:37:50.525Z,8.60
2022-08-31T07:40:50.505Z,7.40
2022-08-31T07:43:23.972Z,7.43
2022-08-31T07:45:53.363Z,8.57
2022-08-31T07:48:28.740Z,8.50
2022-08-31T07:51:24.292Z,8.20
2022-08-31T07:54:10.229Z,9.00
2022-08-31T07:56:43.367Z,8.50
2022-08-31T07:59:15.906Z,8.27
2022-08-31T08:01:47.749Z,7.47
2022-08-31T08:04:25.096Z,6.80
2022-08-31T08:07:09.823Z,6.77
2022-08-31T08:09:55.664Z,6.73
2022-08-31T08:12:43.087Z,7.67
2022-08-31T08:15:26.039Z,7.00
2022-08-31T08:18:17.009Z,6.97
2022-08-31T08:20:52.272Z,6.90
2022-08-31T08:23:28.149Z,8.07
2022-08-31T08:26:28.653Z,6.47
2022-08-31T08:29:06.925Z,7.07
2022-08-31T08:31:40.879Z,6.80
2022-08-31T08:34:12.866Z,6.77
2022-08-31T08:36:41.779Z,6.80
2022-08-31T08:39:13.010Z,6.63
2022-08-31T08:41:49.952Z,5.83
2022-08-31T08:44:20.189Z,6.67
2022-08-31T08:46:55.632Z,5.67
2022-08-31T08:49:36.275Z,5.97
2022-08-31T08:52:10.957Z,6.67
2022-08-31T08:54:42.600Z,5.03
2022-08-31T08:57:14.778Z,5.63
2022-08-31T08:59:45.226Z,5.83
2022-08-31T09:02:17.053Z,5.77
2022-08-31T09:04:50.870Z,5.60
2022-08-31T09:07:45.606Z,5.50
2022-08-31T09:10:20.105Z,5.20
2022-08-31T09:15:44.970Z,4.70
2022-08-31T09:18:24.868Z,5.40
2022-08-31T09:21:06.030Z,5.23
2022-08-31T09:23:37.869Z,5.60
2022-08-31T09:26:08.517Z,4.43
2022-08-31T09:28:56.890Z,5.53
2022-08-31T09:31:34.764Z,5.20
2022-08-31T09:34:03.928Z,4.13
2022-08-31T09:36:41.362Z,4.80
2022-08-31T09:39:21.571Z,4.67
2022-08-31T09:41:51.042Z,4.30
2022-08-31T09:44:23.476Z,4.90
2022-08-31T09:46:56.571Z,4.20
2022-08-31T09:49:27.407Z,4.00
2022-08-31T09:52:16.255Z,4.80
2022-08-31T09:55:12.731Z,3.83
2022-08-31T09:57:55.126Z,4.57
2022-08-31T11:10:05.809Z,3.35
2022-08-31T11:12:40.917Z,3.40
2022-08-31T11:15:28.902Z,3.80
2022-08-31T11:18:13.641Z,3.80
2022-08-31T11:20:56.898Z,3.50
2022-08-31T11:23:35.813Z,3.43
2022-08-31T11:26:28.749Z,3.43
2022-08-31T11:28:59.685Z,3.50
2022-08-31T11:31:31.683Z,4.07
2022-08-31T11:34:16.101Z,3.60
2022-08-31T11:36:50.468Z,3.70
2022-08-31T11:39:41.394Z,3.13
2022-08-31T11:42:28.050Z,4.10
2022-08-31T11:45:06.921Z,3.27
2022-08-31T11:47:37.201Z,3.43
2022-08-31T11:50:13.774Z,3.50
2022-08-31T11:52:48.343Z,3.60
2022-08-31T11:55:25.434Z,3.30
2022-08-31T11:58:20.944Z,4.07
2022-08-31T12:00:58.797Z,3.40
2022-08-31T12:03:50.699Z,3.40
2022-08-31T12:06:39.435Z,3.13
2022-08-31T12:09:17.299Z,3.40
2022-08-31T12:11:48.932Z,3.50
2022-08-31T12:14:23.079Z,3.30
2022-08-31T12:17:00.517Z,3.50
2022-08-31T12:20:01.550Z,3.40
2022-08-31T12:23:30.302Z,3.20
2022-08-31T12:26:06.404Z,3.30
2022-08-31T12:28:44.850Z,3.28
2022-08-31T12:31:16.998Z,3.58
2022-08-31T12:33:50.861Z,3.20
2022-08-31T12:36:20.769Z,3.20
2022-08-31T12:39:06.253Z,3.30
2022-08-31T12:41:39.909Z,3.33
2022-08-31T12:44:14.185Z,3.70
2022-08-31T12:46:52.781Z,3.70
2022-08-31T12:49:44.808Z,3.67
2022-08-31T12:52:21.361Z,3.60
2022-08-31T12:55:09.427Z,3.60
2022-08-31T12:57:50.366Z,4.10
2022-08-31T13:00:26.302Z,3.30
2022-08-31T13:02:56.100Z,3.58
2022-08-31T13:05:26.304Z,3.50
2022-08-31T13:07:57.032Z,3.60
2022-08-31T13:10:27.732Z,3.83
2022-08-31T13:12:57.429Z,3.65
2022-08-31T13:15:27.474Z,3.80
2022-08-31T13:17:56.538Z,3.55
2022-08-31T13:20:28.326Z,3.40
2022-08-31T13:23:02.367Z,3.33
2022-08-31T13:25:38.709Z,3.10
2022-08-31T13:28:08.512Z,3.30
2022-08-31T13:30:39.910Z,3.13
2022-08-31T13:33:23.316Z,3.30
2022-08-31T13:35:52.750Z,3.30
2022-08-31T13:41:17.259Z,3.30
2022-08-31T13:43:58.623Z,3.40
2022-08-31T13:46:41.823Z,3.30
2022-08-31T13:49:22.269Z,3.33
2022-08-31T13:51:53.403Z,3.30
2022-08-31T13:56:58.713Z,2.90
2022-08-31T13:59:30.239Z,3.08
2022-08-31T14:01:59.752Z,3.00
2022-08-31T14:04:43.325Z,3.30
2022-08-31T14:49:46.028Z,2.90
2022-08-31T14:52:16.046Z,3.13
2022-08-31T14:54:44.897Z,3.17
2022-08-31T14:57:14.653Z,4.07
2022-08-31T14:59:46.794Z,3.17
2022-08-31T15:02:21.127Z,2.97
2022-08-31T15:17:20.469Z,2.40
2022-08-31T15:19:55.349Z,2.40
2022-08-31T15:22:26.194Z,2.42
2022-08-31T15:24:55.354Z,2.25
2022-08-31T15:27:28.591Z,2.38
2022-08-31T15:30:04.478Z,2.25
2022-08-31T15:32:36.269Z,2.38
2022-08-31T15:35:04.842Z,2.20
2022-08-31T15:37:33.392Z,2.30
2022-08-31T15:40:03.801Z,2.27
2022-08-31T15:42:39.515Z,2.70
2022-08-31T15:45:09.136Z,2.42
2022-08-31T15:47:58.957Z,2.45
2022-08-31T15:50:32.141Z,2.60
2022-08-31T15:53:08.045Z,2.50
2022-08-31T15:55:41.155Z,2.50
2022-08-31T15:58:10.614Z,2.40
2022-08-31T16:00:41.964Z,2.35
2022-08-31T16:03:12.859Z,2.70
2022-08-31T16:05:43.572Z,2.40
2022-08-31T16:08:13.356Z,2.40
2022-08-31T16:10:46.853Z,2.20
2022-08-31T16:13:16.381Z,2.45
2022-08-31T16:15:51.200Z,2.20
2022-08-31T16:18:22.474Z,2.35
2022-08-31T16:20:52.079Z,2.95
2022-08-31T16:23:21.440Z,2.42
2022-08-31T16:25:50.327Z,2.42
2022-08-31T16:28:20.811Z,2.13
2022-08-31T16:30:51.415Z,2.40
2022-08-31T16:33:20.657Z,2.40
2022-08-31T16:35:51.798Z,2.40
2022-08-31T16:38:20.940Z,2.50
2022-08-31T16:40:50.031Z,2.30
2022-08-31T16:43:18.861Z,2.40
2022-08-31T16:45:47.929Z,2.43
2022-08-31T16:48:34.501Z,2.47
2022-08-31T16:51:04.930Z,2.40
2022-08-31T16:53:33.670Z,2.70
2022-08-31T16:56:04.437Z,2.30
2022-08-31T16:58:51.331Z,2.50
2022-08-31T17:01:23.252Z,2.72
2022-08-31T17:04:00.117Z,2.78
2022-08-31T17:06:33.190Z,2.47
2022-08-31T17:09:03.638Z,2.20
2022-08-31T17:11:35.611Z,2.57
2022-08-31T17:14:07.147Z,2.70
2022-08-31T17:16:37.332Z,3.00
2022-08-31T17:19:08.471Z,2.90
2022-08-31T17:21:49.061Z,2.60
2022-08-31T17:24:19.263Z,3.10
2022-08-31T17:26:48.364Z,2.70
2022-08-31T17:29:17.108Z,2.75
2022-08-31T17:31:46.948Z,2.40
2022-08-31T17:34:16.973Z,2.45
2022-08-31T17:36:48.513Z,2.63
2022-08-31T17:39:18.067Z,2.50
2022-08-31T17:41:48.924Z,2.30
2022-08-31T17:44:19.104Z,2.60
2022-08-31T17:46:49.792Z,2.72
2022-08-31T17:49:19.227Z,2.80
2022-08-31T17:51:50.266Z,2.63
2022-08-31T17:54:20.388Z,2.30
2022-08-31T17:59:20.696Z,2.30
2022-08-31T18:01:50.918Z,2.40
2022-08-31T18:04:20.658Z,2.50
2022-08-31T18:06:53.455Z,3.23
2022-08-31T18:09:24.075Z,2.97
2022-08-31T18:11:53.668Z,3.77
2022-08-31T18:14:23.551Z,3.30
2022-08-31T18:16:53.545Z,3.60
2022-08-31T18:19:25.575Z,3.20
2022-08-31T18:21:58.978Z,3.30
2022-08-31T18:24:28.485Z,3.72
2022-08-31T18:26:58.928Z,3.45
2022-08-31T18:29:28.426Z,2.80
2022-08-31T18:32:04.176Z,3.00
2022-08-31T18:34:45.955Z,3.10
2022-08-31T18:37:26.110Z,2.73
2022-08-31T18:40:12.801Z,3.10
2022-08-31T18:42:59.250Z,3.25
2022-08-31T18:45:28.334Z,3.05
2022-08-31T18:50:51.240Z,2.60
2022-08-31T18:53:29.045Z,3.00
2022-08-31T18:55:59.955Z,2.80
2022-08-31T18:58:30.121Z,2.70
2022-08-31T19:00:59.457Z,2.90
2022-08-31T19:03:29.227Z,3.50
2022-08-31T19:05:58.487Z,3.22
2022-08-31T19:08:29.296Z,3.50
2022-08-31T19:10:58.983Z,3.88
2022-08-31T19:13:28.782Z,2.97
2022-08-31T19:16:02.155Z,3.28
2022-08-31T19:18:35.171Z,3.20
2022-08-31T19:21:13.433Z,3.38
2022-08-31T19:23:44.175Z,3.40
2022-08-31T19:26:19.039Z,3.30
2022-08-31T19:28:49.613Z,3.35
2022-08-31T19:31:20.565Z,3.20
2022-08-31T19:33:56.524Z,2.83
2022-08-31T19:36:27.596Z,3.30
2022-08-31T19:38:59.674Z,3.58
2022-08-31T19:41:29.704Z,3.58
2022-08-31T19:44:09.020Z,3.20
2022-08-31T19:46:39.149Z,2.88
2022-08-31T19:49:11.146Z,3.20
2022-08-31T19:51:41.044Z,3.50
2022-08-31T19:54:12.941Z,3.30
2022-08-31T19:56:43.027Z,3.22
2022-08-31T19:59:13.597Z,3.42
2022-08-31T20:01:43.289Z,3.20
2022-08-31T20:04:16.669Z,3.33
2022-08-31T20:06:46.311Z,3.65
2022-08-31T20:24:13.481Z,3.30
2022-08-31T20:26:47.402Z,3.50
2022-08-31T20:29:21.661Z,3.70
2022-08-31T20:31:51.769Z,3.40
2022-08-31T20:34:23.009Z,3.45
2022-08-31T20:36:58.543Z,3.83
2022-08-31T20:39:31.869Z,3.30
2022-08-31T20:42:03.370Z,3.60
2022-08-31T20:44:33.751Z,3.30
2022-08-31T20:47:21.276Z,3.38
2022-08-31T20:49:53.588Z,4.10
2022-08-31T20:52:23.470Z,3.60
2022-08-31T20:55:01.455Z,3.85
2022-08-31T20:57:31.709Z,4.00
2022-08-31T21:00:03.718Z,3.70
2022-08-31T21:02:34.463Z,3.97
2022-08-31T21:05:27.226Z,4.70
2022-08-31T21:07:53.186Z,4.00
2022-08-31T21:10:32.578Z,4.00
2022-08-31T21:13:07.115Z,4.30
2022-08-31T21:15:35.817Z,3.43
2022-08-31T21:18:04.444Z,4.13
2022-08-31T21:20:33.789Z,4.03
2022-08-31T21:23:02.367Z,3.80
2022-08-31T21:25:32.425Z,4.80
2022-08-31T21:28:02.792Z,4.20
2022-08-31T21:30:31.448Z,3.70
2022-08-31T21:33:00.246Z,4.07
2022-08-31T21:35:28.887Z,4.50
2022-08-31T21:37:58.922Z,4.40
2022-08-31T21:40:28.478Z,4.73
2022-08-31T21:42:58.479Z,4.83
2022-08-31T21:45:27.155Z,4.03
2022-08-31T21:47:55.935Z,3.93
2022-08-31T21:50:24.657Z,4.10
2022-08-31T21:52:58.357Z,4.13
2022-08-31T21:55:28.875Z,4.23
2022-08-31T21:57:59.261Z,4.30
2022-08-31T22:00:29.507Z,4.23
2022-08-31T22:02:58.435Z,3.73
2022-08-31T22:05:32.927Z,3.93
2022-08-31T22:08:01.548Z,4.00
2022-08-31T22:10:32.919Z,4.17
2022-08-31T22:13:05.758Z,4.70
2022-08-31T22:15:37.074Z,3.97
2022-08-31T22:18:46.058Z,4.40
2022-08-31T22:20:55.511Z,4.20
2022-08-31T22:23:26.197Z,4.20
2022-08-31T22:25:55.529Z,4.10
2022-08-31T22:28:27.736Z,4.60
2022-08-31T22:30:57.083Z,3.90
2022-08-31T22:33:26.159Z,4.57
2022-08-31T22:35:55.369Z,4.97
2022-08-31T22:38:25.443Z,4.20
2022-08-31T22:40:55.025Z,4.13
2022-08-31T22:43:24.091Z,4.77
2022-08-31T22:45:54.894Z,4.90
2022-08-31T22:48:23.524Z,4.67
2022-08-31T22:50:52.063Z,5.30
2022-08-31T22:53:20.867Z,4.70
2022-08-31T22:55:49.571Z,4.90
2022-08-31T22:58:18.335Z,4.90
2022-08-31T23:00:48.176Z,4.83
2022-08-31T23:03:18.220Z,5.00
2022-08-31T23:05:48.037Z,4.73
2022-08-31T23:08:16.832Z,5.30
2022-08-31T23:10:46.891Z,5.17
2022-08-31T23:13:15.592Z,4.63
2022-08-31T23:15:44.186Z,4.50
2022-08-31T23:18:13.380Z,4.33
2022-08-31T23:20:43.352Z,4.23
2022-08-31T23:23:12.116Z,4.30
2022-08-31T23:25:41.025Z,3.77
2022-08-31T23:28:09.739Z,4.33
2022-08-31T23:30:40.132Z,4.50
2022-08-31T23:33:08.800Z,4.50
2022-08-31T23:35:37.311Z,4.43
2022-08-31T23:38:07.363Z,4.00
2022-08-31T23:40:35.971Z,4.93
2022-08-31T23:43:04.714Z,4.00
2022-08-31T23:45:33.470Z,3.90
2022-08-31T23:48:02.492Z,4.07
2022-08-31T23:50:31.056Z,3.93
2022-08-31T23:52:59.680Z,3.70
2022-08-31T23:55:31.191Z,3.50
2022-08-31T23:57:59.819Z,4.20
